createdAt,value
2017-01-21T00:00:04.411Z,17.52
2017-01-21T00:01:15.098Z,17.56
2017-01-21T00:02:25.396Z,17.52
2017-01-21T00:03:34.949Z,17.5
2017-01-21T00:04:45.236Z,17.54
2017-01-21T00:05:55.136Z,17.53
2017-01-21T00:07:06.064Z,17.49
2017-01-21T00:08:16.353Z,17.49
2017-01-21T00:09:26.661Z,17.49
2017-01-21T00:10:36.640Z,17.54
2017-01-21T00:11:46.942Z,17.52
2017-01-21T00:12:57.623Z,17.49
2017-01-21T00:14:07.960Z,17.52
2017-01-21T00:15:17.457Z,17.49
2017-01-21T00:16:27.741Z,17.5
2017-01-21T00:17:36.851Z,17.52
2017-01-21T00:18:47.187Z,17.52
2017-01-21T00:19:57.499Z,17.53
2017-01-21T00:21:07.401Z,17.52
2017-01-21T00:22:18.096Z,17.49
2017-01-21T00:23:27.601Z,17.54
2017-01-21T00:24:38.322Z,17.54
2017-01-21T00:25:47.821Z,17.53
2017-01-21T00:26:57.717Z,17.5
2017-01-21T00:28:08.017Z,17.53
2017-01-21T00:29:17.918Z,17.54
2017-01-21T00:30:28.366Z,17.49
2017-01-21T00:31:37.868Z,17.5
2017-01-21T00:32:48.163Z,17.52
2017-01-21T00:33:58.454Z,17.47
2017-01-21T00:35:09.138Z,17.57
2017-01-21T00:36:19.432Z,17.52
2017-01-21T00:37:28.943Z,17.52
2017-01-21T00:38:38.461Z,17.5
2017-01-21T00:39:47.963Z,17.52
2017-01-21T00:40:58.248Z,17.56
2017-01-21T00:42:08.192Z,17.54
2017-01-21T00:43:18.493Z,17.56
2017-01-21T00:44:28.417Z,17.5
2017-01-21T00:45:39.109Z,17.5
2017-01-21T00:46:49.397Z,17.53
2017-01-21T00:47:59.694Z,17.52
2017-01-21T00:49:09.579Z,17.41
2017-01-21T00:50:20.259Z,17.5
2017-01-21T00:51:30.546Z,17.52
2017-01-21T00:52:40.447Z,17.57
2017-01-21T00:53:50.744Z,17.53
2017-01-21T00:55:01.433Z,17.49
2017-01-21T00:56:11.334Z,17.52
2017-01-21T00:57:21.621Z,17.49
2017-01-21T00:58:32.299Z,17.49
2017-01-21T00:59:42.186Z,17.5
2017-01-21T01:00:51.725Z,17.56
2017-01-21T01:02:02.457Z,17.5
2017-01-21T01:03:13.129Z,17.53
2017-01-21T01:04:23.814Z,17.53
2017-01-21T01:05:34.492Z,17.52
2017-01-21T01:06:44.392Z,17.47
2017-01-21T01:07:55.089Z,17.47
2017-01-21T01:09:04.789Z,17.5
2017-01-21T01:10:14.687Z,17.49
2017-01-21T01:11:25.385Z,17.5
2017-01-21T01:12:35.283Z,17.46
2017-01-21T01:13:45.199Z,17.52
2017-01-21T01:14:55.087Z,17.46
2017-01-21T01:16:04.582Z,17.5
2017-01-21T01:17:13.700Z,17.5
2017-01-21T01:18:24.005Z,17.5
2017-01-21T01:19:34.686Z,17.52
2017-01-21T01:20:44.587Z,17.53
2017-01-21T01:21:54.087Z,17.54
2017-01-21T01:23:03.582Z,17.52
2017-01-21T01:24:13.862Z,17.52
2017-01-21T01:25:23.755Z,17.5
2017-01-21T01:26:34.053Z,17.56
2017-01-21T01:27:43.951Z,17.44
2017-01-21T01:28:54.668Z,17.49
2017-01-21T01:30:05.328Z,17.49
2017-01-21T01:31:16.031Z,17.52
2017-01-21T01:32:25.526Z,17.44
2017-01-21T01:33:35.487Z,17.56
2017-01-21T01:34:45.393Z,17.47
2017-01-21T01:35:55.288Z,17.47
2017-01-21T01:37:05.592Z,17.49
2017-01-21T01:38:15.540Z,17.56
2017-01-21T01:39:25.037Z,17.5
2017-01-21T01:40:35.730Z,17.53
2017-01-21T01:41:45.663Z,17.47
2017-01-21T01:42:55.176Z,17.54
2017-01-21T01:44:05.468Z,17.52
2017-01-21T01:45:15.768Z,17.56
2017-01-21T01:46:26.461Z,17.54
2017-01-21T01:47:36.755Z,17.52
2017-01-21T01:48:47.043Z,17.5
2017-01-21T01:49:56.955Z,17.49
2017-01-21T01:51:06.847Z,17.52
2017-01-21T01:52:17.560Z,17.5
2017-01-21T01:53:27.449Z,17.53
2017-01-21T01:54:37.340Z,17.49
2017-01-21T01:55:47.654Z,17.5
2017-01-21T01:56:57.931Z,17.59
2017-01-21T01:58:08.696Z,17.52
2017-01-21T01:59:19.003Z,17.5
2017-01-21T02:00:29.274Z,17.5
2017-01-21T02:01:39.572Z,17.54
2017-01-21T02:02:49.869Z,17.57
2017-01-21T02:03:59.381Z,17.5
2017-01-21T02:05:09.667Z,17.49
2017-01-21T02:06:19.954Z,17.53
2017-01-21T02:07:29.842Z,17.52
2017-01-21T02:08:40.132Z,17.47
2017-01-21T02:09:49.624Z,17.42
2017-01-21T02:10:59.519Z,17.47
2017-01-21T02:12:09.074Z,17.52
2017-01-21T02:13:19.369Z,17.39
2017-01-21T02:14:29.314Z,17.46
2017-01-21T02:15:39.603Z,17.46
2017-01-21T02:16:50.296Z,17.47
2017-01-21T02:18:00.592Z,17.49
2017-01-21T02:19:10.486Z,17.54
2017-01-21T02:20:21.184Z,17.47
2017-01-21T02:21:31.069Z,17.52
2017-01-21T02:22:41.360Z,17.42
2017-01-21T02:23:51.696Z,17.44
2017-01-21T02:25:02.007Z,17.42
2017-01-21T02:26:11.904Z,17.44
2017-01-21T02:27:22.188Z,17.38
2017-01-21T02:28:32.867Z,17.46
2017-01-21T02:29:42.762Z,17.52
2017-01-21T02:30:52.672Z,17.47
2017-01-21T02:32:03.366Z,17.52
2017-01-21T02:33:14.052Z,17.41
2017-01-21T02:34:23.571Z,17.42
2017-01-21T02:35:33.868Z,17.39
2017-01-21T02:36:44.147Z,17.39
2017-01-21T02:37:54.042Z,17.44
2017-01-21T02:39:03.061Z,17.37
2017-01-21T02:40:12.552Z,17.53
2017-01-21T02:41:22.455Z,17.46
2017-01-21T02:42:32.745Z,17.42
2017-01-21T02:43:42.638Z,17.39
2017-01-21T02:44:52.128Z,17.42
2017-01-21T02:46:02.029Z,17.39
2017-01-21T02:47:12.327Z,17.49
2017-01-21T02:48:22.621Z,17.38
2017-01-21T02:49:32.911Z,17.44
2017-01-21T02:50:43.197Z,17.46
2017-01-21T02:51:53.096Z,17.52
2017-01-21T02:53:03.394Z,17.46
2017-01-21T02:54:13.680Z,17.46
2017-01-21T02:55:23.180Z,17.49
2017-01-21T02:56:33.077Z,17.46
2017-01-21T02:57:43.764Z,17.39
2017-01-21T02:58:53.816Z,17.41
2017-01-21T03:00:04.164Z,17.49
2017-01-21T03:01:14.866Z,17.46
2017-01-21T03:02:25.555Z,17.41
2017-01-21T03:03:35.859Z,17.42
2017-01-21T03:04:46.154Z,17.5
2017-01-21T03:05:56.542Z,17.49
2017-01-21T03:07:06.440Z,17.52
2017-01-21T03:08:16.343Z,17.5
2017-01-21T03:09:26.633Z,17.52
2017-01-21T03:10:36.518Z,17.54
2017-01-21T03:11:46.008Z,17.47
2017-01-21T03:12:55.918Z,17.53
2017-01-21T03:14:06.230Z,17.5
2017-01-21T03:15:16.530Z,17.54
2017-01-21T03:16:27.212Z,17.53
2017-01-21T03:17:37.113Z,17.52
2017-01-21T03:18:47.156Z,17.5
2017-01-21T03:19:57.040Z,17.54
2017-01-21T03:21:07.336Z,17.52
2017-01-21T03:22:17.612Z,17.56
2017-01-21T03:23:27.110Z,17.5
2017-01-21T03:24:37.015Z,17.52
2017-01-21T03:25:47.308Z,17.49
2017-01-21T03:26:58.003Z,17.52
2017-01-21T03:28:07.545Z,17.5
2017-01-21T03:29:17.824Z,17.52
2017-01-21T03:30:28.105Z,17.49
2017-01-21T03:31:37.618Z,17.47
2017-01-21T03:32:48.325Z,17.52
2017-01-21T03:33:58.220Z,17.52
2017-01-21T03:35:08.536Z,17.5
2017-01-21T03:36:18.429Z,17.47
2017-01-21T03:37:27.930Z,17.54
2017-01-21T03:38:38.221Z,17.49
2017-01-21T03:39:48.512Z,17.49
2017-01-21T03:40:58.019Z,17.54
2017-01-21T03:42:08.755Z,17.5
2017-01-21T03:43:18.265Z,17.46
2017-01-21T03:44:28.554Z,17.52
2017-01-21T03:45:38.856Z,17.44
2017-01-21T03:46:49.541Z,17.52
2017-01-21T03:48:00.247Z,17.47
2017-01-21T03:49:09.369Z,17.5
2017-01-21T03:50:19.810Z,17.5
2017-01-21T03:51:30.092Z,17.49
2017-01-21T03:52:39.991Z,17.46
2017-01-21T03:53:49.497Z,17.54
2017-01-21T03:54:59.042Z,17.49
2017-01-21T03:56:08.939Z,17.5
2017-01-21T03:57:19.244Z,17.47
2017-01-21T03:58:28.779Z,17.52
2017-01-21T03:59:38.672Z,17.5
2017-01-21T04:00:49.385Z,17.52
2017-01-21T04:01:59.675Z,17.52
2017-01-21T04:03:10.370Z,17.54
2017-01-21T04:04:20.655Z,17.5
2017-01-21T04:05:30.542Z,17.53
2017-01-21T04:06:41.211Z,17.46
2017-01-21T04:07:51.150Z,17.47
2017-01-21T04:09:01.438Z,17.46
2017-01-21T04:10:11.339Z,17.49
2017-01-21T04:11:21.237Z,17.52
2017-01-21T04:12:30.735Z,17.52
2017-01-21T04:13:41.037Z,17.5
2017-01-21T04:14:51.341Z,17.52
2017-01-21T04:16:01.236Z,17.47
2017-01-21T04:17:11.133Z,17.54
2017-01-21T04:18:21.810Z,17.47
2017-01-21T04:19:32.090Z,17.53
2017-01-21T04:20:41.588Z,17.47
2017-01-21T04:21:51.884Z,17.49
2017-01-21T04:23:01.377Z,17.53
2017-01-21T04:24:12.046Z,17.52
2017-01-21T04:25:21.557Z,17.49
2017-01-21T04:26:31.853Z,17.47
2017-01-21T04:27:42.564Z,17.47
2017-01-21T04:28:52.473Z,17.54
2017-01-21T04:30:02.366Z,17.52
2017-01-21T04:31:11.461Z,17.47
2017-01-21T04:32:21.754Z,17.5
2017-01-21T04:33:32.471Z,17.47
2017-01-21T04:34:42.918Z,17.47
2017-01-21T04:35:52.826Z,17.47
2017-01-21T04:37:02.316Z,17.53
2017-01-21T04:38:12.609Z,17.46
2017-01-21T04:39:22.900Z,17.44
2017-01-21T04:40:32.799Z,17.54
2017-01-21T04:41:43.433Z,17.49
2017-01-21T04:42:53.723Z,17.47
2017-01-21T04:44:04.017Z,17.52
2017-01-21T04:45:13.916Z,17.5
2017-01-21T04:46:23.823Z,17.53
2017-01-21T04:47:34.138Z,17.47
2017-01-21T04:48:44.038Z,17.42
2017-01-21T04:49:53.963Z,17.49
2017-01-21T04:51:04.251Z,17.52
2017-01-21T04:52:14.136Z,17.47
2017-01-21T04:53:24.425Z,17.47
2017-01-21T04:54:35.093Z,17.47
2017-01-21T04:55:45.387Z,17.53
2017-01-21T04:56:55.685Z,17.5
2017-01-21T04:58:05.967Z,17.52
2017-01-21T04:59:16.727Z,17.47
2017-01-21T05:00:27.034Z,17.5
2017-01-21T05:01:37.721Z,17.52
2017-01-21T05:02:47.621Z,17.46
2017-01-21T05:03:57.899Z,17.5
2017-01-21T05:05:08.191Z,17.46
2017-01-21T05:06:18.093Z,17.52
2017-01-21T05:07:28.391Z,17.52
2017-01-21T05:08:39.098Z,17.5
2017-01-21T05:09:48.592Z,17.54
2017-01-21T05:10:59.276Z,17.53
2017-01-21T05:12:09.579Z,17.44
2017-01-21T05:13:20.261Z,17.49
2017-01-21T05:14:30.547Z,17.46
2017-01-21T05:15:40.444Z,17.63
2017-01-21T05:16:49.946Z,17.52
2017-01-21T05:18:00.240Z,17.49
2017-01-21T05:19:10.922Z,17.52
2017-01-21T05:20:20.415Z,17.53
2017-01-21T05:21:30.702Z,17.54
2017-01-21T05:22:40.997Z,17.5
2017-01-21T05:23:50.895Z,17.49
2017-01-21T05:25:00.412Z,17.49
2017-01-21T05:26:11.097Z,17.44
2017-01-21T05:27:20.981Z,17.49
2017-01-21T05:28:31.275Z,17.53
2017-01-21T05:29:41.162Z,17.52
2017-01-21T05:30:51.831Z,17.52
2017-01-21T05:32:02.516Z,17.49
2017-01-21T05:33:12.793Z,17.52
2017-01-21T05:34:23.098Z,17.59
2017-01-21T05:35:32.596Z,17.49
2017-01-21T05:36:43.269Z,17.52
2017-01-21T05:37:53.575Z,17.49
2017-01-21T05:39:03.077Z,17.52
2017-01-21T05:40:12.975Z,17.5
2017-01-21T05:41:23.371Z,17.5
2017-01-21T05:42:33.660Z,17.49
2017-01-21T05:43:43.945Z,17.53
2017-01-21T05:44:54.222Z,17.49
2017-01-21T05:46:04.111Z,17.53
2017-01-21T05:47:13.600Z,17.53
2017-01-21T05:48:23.496Z,17.56
2017-01-21T05:49:33.784Z,17.57
2017-01-21T05:50:43.682Z,17.53
2017-01-21T05:51:53.957Z,17.52
2017-01-21T05:53:04.238Z,17.47
2017-01-21T05:54:13.739Z,17.52
2017-01-21T05:55:23.238Z,17.53
2017-01-21T05:56:33.529Z,17.49
2017-01-21T05:57:43.432Z,17.49
2017-01-21T05:58:53.486Z,17.54
2017-01-21T06:00:03.768Z,17.5
2017-01-21T06:01:14.100Z,17.56
2017-01-21T06:02:24.781Z,17.49
2017-01-21T06:03:35.076Z,17.57
2017-01-21T06:04:45.374Z,17.52
2017-01-21T06:05:54.884Z,17.54
2017-01-21T06:07:04.781Z,17.56
2017-01-21T06:08:14.676Z,17.56
2017-01-21T06:09:24.971Z,17.47
2017-01-21T06:10:34.867Z,17.57
2017-01-21T06:11:44.765Z,17.53
2017-01-21T06:12:55.073Z,17.5
2017-01-21T06:14:04.965Z,17.49
2017-01-21T06:15:14.864Z,17.47
2017-01-21T06:16:25.148Z,17.53
2017-01-21T06:17:35.844Z,17.49
2017-01-21T06:18:46.142Z,17.52
2017-01-21T06:19:56.823Z,17.49
2017-01-21T06:21:06.708Z,17.53
2017-01-21T06:22:16.996Z,17.52
2017-01-21T06:23:27.687Z,17.47
2017-01-21T06:24:36.789Z,17.65
2017-01-21T06:25:47.077Z,17.52
2017-01-21T06:26:57.749Z,17.54
2017-01-21T06:28:07.644Z,17.56
2017-01-21T06:29:17.155Z,17.54
2017-01-21T06:30:27.475Z,17.53
2017-01-21T06:31:36.570Z,17.49
2017-01-21T06:32:46.458Z,17.47
2017-01-21T06:33:57.143Z,17.52
2017-01-21T06:35:07.048Z,17.47
2017-01-21T06:36:16.951Z,17.49
2017-01-21T06:37:27.240Z,17.53
2017-01-21T06:38:37.936Z,17.52
2017-01-21T06:39:48.619Z,17.49
2017-01-21T06:40:58.910Z,17.49
2017-01-21T06:42:08.404Z,17.53
2017-01-21T06:43:18.302Z,17.5
2017-01-21T06:44:28.987Z,17.44
2017-01-21T06:45:38.880Z,17.52
2017-01-21T06:46:49.185Z,17.5
2017-01-21T06:47:59.469Z,17.49
2017-01-21T06:49:09.753Z,17.47
2017-01-21T06:50:20.049Z,17.47
2017-01-21T06:51:29.977Z,17.5
2017-01-21T06:52:39.466Z,17.5
2017-01-21T06:53:49.360Z,17.49
2017-01-21T06:54:59.269Z,17.47
2017-01-21T06:56:09.957Z,17.49
2017-01-21T06:57:19.848Z,17.53
2017-01-21T06:58:29.371Z,17.49
2017-01-21T06:59:38.482Z,17.52
2017-01-21T07:00:48.768Z,17.53
2017-01-21T07:01:59.054Z,17.56
2017-01-21T07:03:08.157Z,17.52
2017-01-21T07:04:18.051Z,17.54
2017-01-21T07:05:28.348Z,17.49
2017-01-21T07:06:38.661Z,17.49
2017-01-21T07:07:48.953Z,17.52
2017-01-21T07:08:59.049Z,17.49
2017-01-21T07:10:09.350Z,17.59
2017-01-21T07:11:20.026Z,17.52
2017-01-21T07:12:30.697Z,17.52
2017-01-21T07:13:41.403Z,17.53
2017-01-21T07:14:51.296Z,17.5
2017-01-21T07:16:01.198Z,17.47
2017-01-21T07:17:11.497Z,17.54
2017-01-21T07:18:21.421Z,17.56
2017-01-21T07:19:31.804Z,17.49
2017-01-21T07:20:41.688Z,17.53
2017-01-21T07:21:51.973Z,17.49
2017-01-21T07:23:02.271Z,17.54
2017-01-21T07:24:12.568Z,17.47
2017-01-21T07:25:22.853Z,17.54
2017-01-21T07:26:33.148Z,17.5
2017-01-21T07:27:43.040Z,17.53
2017-01-21T07:28:52.551Z,17.53
2017-01-21T07:30:03.006Z,17.54
2017-01-21T07:31:13.285Z,17.49
2017-01-21T07:32:23.984Z,17.5
2017-01-21T07:33:33.882Z,17.57
2017-01-21T07:34:43.793Z,17.5
2017-01-21T07:35:54.102Z,17.49
2017-01-21T07:37:04.404Z,17.52
2017-01-21T07:38:14.297Z,17.57
2017-01-21T07:39:24.606Z,17.54
2017-01-21T07:40:34.898Z,17.53
2017-01-21T07:41:44.797Z,17.53
2017-01-21T07:42:55.486Z,17.47
2017-01-21T07:44:05.814Z,17.52
2017-01-21T07:45:15.315Z,17.52
2017-01-21T07:46:25.610Z,17.5
2017-01-21T07:47:35.504Z,17.49
2017-01-21T07:48:44.997Z,17.54
2017-01-21T07:49:54.898Z,17.69
2017-01-21T07:51:05.191Z,17.53
2017-01-21T07:52:15.489Z,17.52
2017-01-21T07:53:25.788Z,17.47
2017-01-21T07:54:36.469Z,17.56
2017-01-21T07:55:46.773Z,17.53
2017-01-21T07:56:56.704Z,17.56
2017-01-21T07:58:06.600Z,17.47
2017-01-21T07:59:16.893Z,17.53
2017-01-21T08:00:26.807Z,17.46
2017-01-21T08:01:37.104Z,17.52
2017-01-21T08:02:47.783Z,17.52
2017-01-21T08:03:58.079Z,17.46
2017-01-21T08:05:07.597Z,17.53
2017-01-21T08:06:18.281Z,17.5
2017-01-21T08:07:28.983Z,17.46
2017-01-21T08:08:39.296Z,17.53
2017-01-21T08:09:49.216Z,17.5
2017-01-21T08:10:59.101Z,17.59
2017-01-21T08:12:09.817Z,17.52
2017-01-21T08:13:20.549Z,17.59
2017-01-21T08:14:30.063Z,17.54
2017-01-21T08:15:39.989Z,17.5
2017-01-21T08:16:50.290Z,17.44
2017-01-21T08:18:00.577Z,17.54
2017-01-21T08:19:10.074Z,17.49
2017-01-21T08:20:20.764Z,17.49
2017-01-21T08:21:30.658Z,17.5
2017-01-21T08:22:40.948Z,17.56
2017-01-21T08:23:50.845Z,17.5
2017-01-21T08:25:01.139Z,17.49
2017-01-21T08:26:10.637Z,17.53
2017-01-21T08:27:20.965Z,17.5
2017-01-21T08:28:31.287Z,17.47
2017-01-21T08:29:41.589Z,17.53
2017-01-21T08:30:51.510Z,17.6
2017-01-21T08:32:01.508Z,17.59
2017-01-21T08:33:11.825Z,17.59
2017-01-21T08:34:21.746Z,17.52
2017-01-21T08:35:32.054Z,17.53
2017-01-21T08:36:42.755Z,17.49
2017-01-21T08:37:53.432Z,17.57
2017-01-21T08:39:03.733Z,17.52
2017-01-21T08:40:14.029Z,17.52
2017-01-21T08:41:23.542Z,17.52
2017-01-21T08:42:33.824Z,17.53
2017-01-21T08:43:44.115Z,17.5
2017-01-21T08:44:54.501Z,17.44
2017-01-21T08:46:04.815Z,17.52
2017-01-21T08:47:15.109Z,17.53
2017-01-21T08:48:25.467Z,17.63
2017-01-21T08:49:35.369Z,17.54
2017-01-21T08:50:44.873Z,17.6
2017-01-21T08:51:55.569Z,17.6
2017-01-21T08:53:05.061Z,17.46
2017-01-21T08:54:14.569Z,17.47
2017-01-21T08:55:24.902Z,17.57
2017-01-21T08:56:34.399Z,17.49
2017-01-21T08:57:44.304Z,17.54
2017-01-21T08:58:54.233Z,17.6
2017-01-21T09:00:04.534Z,17.6
2017-01-21T09:01:14.833Z,17.6
2017-01-21T09:02:25.126Z,17.63
2017-01-21T09:03:35.821Z,17.57
2017-01-21T09:04:45.720Z,17.65
2017-01-21T09:05:55.674Z,17.6
2017-01-21T09:07:05.576Z,17.6
2017-01-21T09:08:15.883Z,17.66
2017-01-21T09:09:25.789Z,17.59
2017-01-21T09:10:36.486Z,17.57
2017-01-21T09:11:47.242Z,17.6
2017-01-21T09:12:57.529Z,17.49
2017-01-21T09:14:07.843Z,17.71
2017-01-21T09:15:18.123Z,17.66
2017-01-21T09:16:28.820Z,17.69
2017-01-21T09:17:38.724Z,17.57
2017-01-21T09:18:49.018Z,17.59
2017-01-21T09:19:59.310Z,17.63
2017-01-21T09:21:10.012Z,17.68
2017-01-21T09:22:19.126Z,17.66
2017-01-21T09:23:29.820Z,17.57
2017-01-21T09:24:40.519Z,17.66
2017-01-21T09:25:50.013Z,17.66
2017-01-21T09:26:59.529Z,17.71
2017-01-21T09:28:09.039Z,17.59
2017-01-21T09:29:19.328Z,17.66
2017-01-21T09:30:29.244Z,17.69
2017-01-21T09:31:38.748Z,17.65
2017-01-21T09:32:48.727Z,17.59
2017-01-21T09:33:59.012Z,17.52
2017-01-21T09:35:09.300Z,17.63
2017-01-21T09:36:19.587Z,17.68
2017-01-21T09:37:30.280Z,17.66
2017-01-21T09:38:40.204Z,17.68
2017-01-21T09:39:49.717Z,17.63
2017-01-21T09:41:00.009Z,17.56
2017-01-21T09:42:10.299Z,17.71
2017-01-21T09:43:20.986Z,17.71
2017-01-21T09:44:30.910Z,17.71
2017-01-21T09:45:41.600Z,17.59
2017-01-21T09:46:51.104Z,17.6
2017-01-21T09:48:00.608Z,17.68
2017-01-21T09:49:10.912Z,17.69
2017-01-21T09:50:21.217Z,17.63
2017-01-21T09:51:31.154Z,17.68
2017-01-21T09:52:41.080Z,17.68
2017-01-21T09:53:50.986Z,17.69
2017-01-21T09:55:00.485Z,17.66
2017-01-21T09:56:09.986Z,17.66
2017-01-21T09:57:20.681Z,17.66
2017-01-21T09:58:30.597Z,17.68
2017-01-21T09:59:40.493Z,17.66
2017-01-21T10:00:50.807Z,17.59
2017-01-21T10:02:01.504Z,17.66
2017-01-21T10:03:12.193Z,17.68
2017-01-21T10:04:22.093Z,17.69
2017-01-21T10:05:31.981Z,17.59
2017-01-21T10:06:42.684Z,17.63
2017-01-21T10:07:53.384Z,17.66
2017-01-21T10:09:03.690Z,17.71
2017-01-21T10:10:13.206Z,17.66
2017-01-21T10:11:23.898Z,17.59
2017-01-21T10:12:34.187Z,17.65
2017-01-21T10:13:44.525Z,17.6
2017-01-21T10:14:54.820Z,17.63
2017-01-21T10:16:04.327Z,17.66
2017-01-21T10:17:14.614Z,17.68
2017-01-21T10:18:24.936Z,17.56
2017-01-21T10:19:35.228Z,17.53
2017-01-21T10:20:45.519Z,17.63
2017-01-21T10:21:55.837Z,17.63
2017-01-21T10:23:05.745Z,17.68
2017-01-21T10:24:16.463Z,17.66
2017-01-21T10:25:25.963Z,17.65
2017-01-21T10:26:35.929Z,17.66
2017-01-21T10:27:45.445Z,17.66
2017-01-21T10:28:56.181Z,17.54
2017-01-21T10:30:06.471Z,17.63
2017-01-21T10:31:16.781Z,17.63
2017-01-21T10:32:27.082Z,17.59
2017-01-21T10:33:36.583Z,17.65
2017-01-21T10:34:46.486Z,17.66
2017-01-21T10:35:56.801Z,17.6
2017-01-21T10:37:07.094Z,17.68
2017-01-21T10:38:17.389Z,17.59
2017-01-21T10:39:27.692Z,17.66
2017-01-21T10:40:37.977Z,17.69
2017-01-21T10:41:47.713Z,17.66
2017-01-21T10:42:58.018Z,17.54
2017-01-21T10:44:08.720Z,17.68
2017-01-21T10:45:18.615Z,17.71
2017-01-21T10:46:28.916Z,17.66
2017-01-21T10:47:38.811Z,17.54
2017-01-21T10:48:49.491Z,17.66
2017-01-21T10:49:59.788Z,17.65
2017-01-21T10:51:10.082Z,17.63
2017-01-21T10:52:20.387Z,17.69
2017-01-21T10:53:30.689Z,17.6
2017-01-21T10:54:41.370Z,17.71
2017-01-21T10:55:51.680Z,17.71
2017-01-21T10:57:01.586Z,17.68
2017-01-21T10:58:11.934Z,17.54
2017-01-21T10:59:21.851Z,17.73
2017-01-21T11:00:31.364Z,17.53
2017-01-21T11:01:42.069Z,17.57
2017-01-21T11:02:52.365Z,17.57
2017-01-21T11:04:02.719Z,17.69
2017-01-21T11:05:13.404Z,17.72
2017-01-21T11:06:23.292Z,17.59
2017-01-21T11:07:33.583Z,17.72
2017-01-21T11:08:43.479Z,17.69
2017-01-21T11:09:53.765Z,17.68
2017-01-21T11:11:03.271Z,17.59
2017-01-21T11:12:13.567Z,17.65
2017-01-21T11:13:23.871Z,17.56
2017-01-21T11:14:34.562Z,17.69
2017-01-21T11:15:45.267Z,17.6
2017-01-21T11:16:55.161Z,17.57
2017-01-21T11:18:05.874Z,17.68
2017-01-21T11:19:15.786Z,17.66
2017-01-21T11:20:25.703Z,17.65
2017-01-21T11:21:36.010Z,17.71
2017-01-21T11:22:46.698Z,17.66
2017-01-21T11:23:56.599Z,17.63
2017-01-21T11:25:06.932Z,17.66
2017-01-21T11:26:16.842Z,17.69
2017-01-21T11:27:27.166Z,17.69
2017-01-21T11:28:37.892Z,17.68
2017-01-21T11:29:47.808Z,17.65
2017-01-21T11:30:57.712Z,17.71
2017-01-21T11:32:07.629Z,17.68
2017-01-21T11:33:17.937Z,17.71
2017-01-21T11:34:28.222Z,17.6
2017-01-21T11:35:38.511Z,17.68
2017-01-21T11:36:48.028Z,17.68
2017-01-21T11:37:58.315Z,17.57
2017-01-21T11:39:08.610Z,17.68
2017-01-21T11:40:18.524Z,17.71
2017-01-21T11:41:28.822Z,17.72
2017-01-21T11:42:39.525Z,17.69
2017-01-21T11:43:49.453Z,17.65
2017-01-21T11:45:00.132Z,17.59
2017-01-21T11:46:10.452Z,17.63
2017-01-21T11:47:20.375Z,17.79
2017-01-21T11:48:30.292Z,17.65
2017-01-21T11:49:40.635Z,17.66
2017-01-21T11:50:50.932Z,17.65
2017-01-21T11:52:01.619Z,17.71
2017-01-21T11:53:11.928Z,17.59
2017-01-21T11:54:21.828Z,17.65
2017-01-21T11:55:32.657Z,17.6
2017-01-21T11:56:43.351Z,17.73
2017-01-21T11:57:53.251Z,17.68
2017-01-21T11:59:03.931Z,17.73
2017-01-21T12:00:14.613Z,17.69
2017-01-21T12:01:24.926Z,17.59
2017-01-21T12:02:34.843Z,17.72
2017-01-21T12:03:45.527Z,17.65
2017-01-21T12:04:55.416Z,17.68
2017-01-21T12:06:04.926Z,17.71
2017-01-21T12:07:15.267Z,17.63
2017-01-21T12:08:25.595Z,17.6
2017-01-21T12:09:36.279Z,17.72
2017-01-21T12:10:46.963Z,17.71
2017-01-21T12:11:56.471Z,17.73
2017-01-21T12:13:05.989Z,17.69
2017-01-21T12:14:15.900Z,17.68
2017-01-21T12:15:25.408Z,17.71
2017-01-21T12:16:35.728Z,17.65
2017-01-21T12:17:45.250Z,17.65
2017-01-21T12:18:55.962Z,17.65
2017-01-21T12:20:06.289Z,17.73
2017-01-21T12:21:16.206Z,17.63
2017-01-21T12:22:26.520Z,17.63
2017-01-21T12:23:36.826Z,17.66
2017-01-21T12:24:47.139Z,17.66
2017-01-21T12:25:57.032Z,17.75
2017-01-21T12:27:07.741Z,17.69
2017-01-21T12:28:18.462Z,17.65
2017-01-21T12:29:29.174Z,17.71
2017-01-21T12:30:39.466Z,17.65
2017-01-21T12:31:50.199Z,17.68
2017-01-21T12:33:00.602Z,17.75
2017-01-21T12:34:11.320Z,17.65
2017-01-21T12:35:21.662Z,17.63
2017-01-21T12:36:32.392Z,17.66
2017-01-21T12:37:42.718Z,17.6
2017-01-21T12:38:53.063Z,17.76
2017-01-21T12:40:03.433Z,17.73
2017-01-21T12:41:14.174Z,17.75
2017-01-21T12:42:24.898Z,17.63
2017-01-21T12:43:35.219Z,17.71
2017-01-21T12:44:45.548Z,17.69
2017-01-21T12:45:56.298Z,17.76
2017-01-21T12:47:06.631Z,17.6
2017-01-21T12:48:17.363Z,17.68
2017-01-21T12:49:28.141Z,17.73
2017-01-21T12:50:38.134Z,17.63
2017-01-21T12:51:48.835Z,17.68
2017-01-21T12:52:58.369Z,17.68
2017-01-21T12:54:08.705Z,17.63
2017-01-21T12:55:19.431Z,17.66
2017-01-21T12:56:30.168Z,17.69
2017-01-21T12:57:40.091Z,17.65
2017-01-21T12:58:50.427Z,17.72
2017-01-21T13:00:01.138Z,17.71
2017-01-21T13:01:11.483Z,17.69
2017-01-21T13:02:21.807Z,17.71
2017-01-21T13:03:32.152Z,17.71
2017-01-21T13:04:42.872Z,17.65
2017-01-21T13:05:53.606Z,17.68
2017-01-21T13:07:04.334Z,17.71
2017-01-21T13:08:14.274Z,17.72
2017-01-21T13:09:25.007Z,17.66
2017-01-21T13:10:35.759Z,17.72
2017-01-21T13:11:46.460Z,17.65
2017-01-21T13:12:57.185Z,17.69
2017-01-21T13:14:07.898Z,17.72
2017-01-21T13:15:18.620Z,17.71
2017-01-21T13:16:29.357Z,17.68
2017-01-21T13:17:39.676Z,17.65
2017-01-21T13:18:50.419Z,17.66
2017-01-21T13:20:01.145Z,17.72
2017-01-21T13:21:11.936Z,17.63
2017-01-21T13:22:22.262Z,17.69
2017-01-21T13:23:32.998Z,17.65
2017-01-21T13:24:43.309Z,17.68
2017-01-21T13:25:53.615Z,17.66
2017-01-21T13:27:04.352Z,17.68
2017-01-21T13:28:15.088Z,17.65
2017-01-21T13:29:24.639Z,17.57
2017-01-21T13:30:35.366Z,17.65
2017-01-21T13:31:46.102Z,17.63
2017-01-21T13:32:56.073Z,17.57
2017-01-21T13:34:06.398Z,17.54
2017-01-21T13:35:17.154Z,17.68
2017-01-21T13:36:27.488Z,17.68
2017-01-21T13:37:38.207Z,17.65
2017-01-21T13:38:48.521Z,17.66
2017-01-21T13:39:59.251Z,17.73
2017-01-21T13:41:10.093Z,17.6
2017-01-21T13:42:20.419Z,17.6
2017-01-21T13:43:30.346Z,17.69
2017-01-21T13:44:41.066Z,17.6
2017-01-21T13:45:50.983Z,17.71
2017-01-21T13:47:00.931Z,17.73
2017-01-21T13:48:11.658Z,17.66
2017-01-21T13:49:21.987Z,17.54
2017-01-21T13:50:32.317Z,17.63
2017-01-21T13:51:41.454Z,17.6
2017-01-21T13:52:51.783Z,17.63
2017-01-21T13:54:01.713Z,17.65
2017-01-21T13:55:12.423Z,17.6
2017-01-21T13:56:22.810Z,17.65
2017-01-21T13:57:32.731Z,17.54
2017-01-21T13:58:43.053Z,17.6
2017-01-21T13:59:53.802Z,17.63
2017-01-21T14:01:03.718Z,17.66
2017-01-21T14:02:14.448Z,17.65
2017-01-21T14:03:24.778Z,17.65
2017-01-21T14:04:35.109Z,17.68
2017-01-21T14:05:45.422Z,17.71
2017-01-21T14:06:56.202Z,17.69
2017-01-21T14:08:06.534Z,17.72
2017-01-21T14:09:17.258Z,17.65
2017-01-21T14:10:27.978Z,17.65
2017-01-21T14:11:38.699Z,17.63
2017-01-21T14:12:49.009Z,17.68
2017-01-21T14:13:58.555Z,17.6
2017-01-21T14:15:08.906Z,17.68
2017-01-21T14:16:19.219Z,17.69
2017-01-21T14:17:29.937Z,17.63
2017-01-21T14:18:40.275Z,17.6
2017-01-21T14:19:50.214Z,17.65
2017-01-21T14:21:00.938Z,17.46
2017-01-21T14:22:11.280Z,17.56
2017-01-21T14:23:21.997Z,17.57
2017-01-21T14:24:32.327Z,17.52
2017-01-21T14:25:42.276Z,17.52
2017-01-21T14:26:52.997Z,17.49
2017-01-21T14:28:03.737Z,17.59
2017-01-21T14:29:14.480Z,17.54
2017-01-21T14:30:24.804Z,17.5
2017-01-21T14:31:35.509Z,17.56
2017-01-21T14:32:45.438Z,17.5
2017-01-21T14:33:56.197Z,17.59
2017-01-21T14:35:06.151Z,17.53
2017-01-21T14:36:16.475Z,17.47
2017-01-21T14:37:26.818Z,17.47
2017-01-21T14:38:36.767Z,17.5
2017-01-21T14:39:46.693Z,17.5
2017-01-21T14:40:57.020Z,17.49
2017-01-21T14:42:07.356Z,17.47
2017-01-21T14:43:17.669Z,17.56
2017-01-21T14:44:27.992Z,17.44
2017-01-21T14:45:38.709Z,17.53
2017-01-21T14:46:48.640Z,17.49
2017-01-21T14:47:59.360Z,17.5
2017-01-21T14:49:08.909Z,17.53
2017-01-21T14:50:18.849Z,17.52
2017-01-21T14:51:29.178Z,17.53
2017-01-21T14:52:39.889Z,17.46
2017-01-21T14:53:49.828Z,17.52
2017-01-21T14:55:00.184Z,17.52
2017-01-21T14:56:10.122Z,17.47
2017-01-21T14:57:20.843Z,17.49
2017-01-21T14:58:31.164Z,17.42
2017-01-21T14:59:40.688Z,17.46
2017-01-21T15:00:51.409Z,17.53
2017-01-21T15:02:02.139Z,17.5
2017-01-21T15:03:12.864Z,17.52
2017-01-21T15:04:23.195Z,17.52
2017-01-21T15:05:33.924Z,17.52
2017-01-21T15:06:44.241Z,17.52